Αρχική σελίδα
METAR-TAF:

METAR-TAF

Αεροδρόμια :

Tiree, Σκωτία

γεωγραφικό πλάτος: 56-30N, γεωγραφικό μήκος: 006-53W, υψόμετρο: 12 μ

Παρών καιρός

Η αναφορά έγινε 17 ώρες και 14 λεπτά πριν, στις 14:20 UTC
Άνεμος 8 kt από Β
Θερμοκρασία 15°C
Υγρασία 82%
Πίεση 1011 hPa
Ορατότητα 10 χλμ και άνω
Λίγα νέφη σε ύψος 1400 πόδια

METAR: EGPU 141420Z 01008KT 9999 FEW014 15/12 Q1011

Χρόνος: 08:34 (07:34 UTC)

Πρόγνωση Καιρού

Η αναφορά έγινε 17 ώρες και 30 λεπτά πριν, στις 14:04 UTC
Η πρόγνωση ισχύει από τις 14 στις 15 UTC έως τις 14 στις 18 UTC
Άνεμος 9 kt από ΝA
Ορατότητα 10 χλμ και άνω
Λίγα νέφη σε ύψος 2000 πόδια

TAF: EGPU 141404Z 1415/1418 14009KT 9999 FEW020

Μετεωρολογικές αναφορές και προγνώσεις για περισσότερα από 4000 αεροδρόμια (δελτία METAR και TAF).

Οι διαθέσιμοι σταθμοί απεικονίζονται στο χάρτη με κίτρινες και κόκκινες κουκκίδες.

Μετακινήστε το ποντίκι πάνω από τις κουκκίδες για να δείτε το όνομα του σταθμού.

Στη συνέχεια, κάντε κλικ για να δείτε τις μετεωρολογικές αναφορές και τις προγνώσεις καιρού.

Για να αλλάξετε το χάρτη: κάντε κλικ στα πράσινα κουμπιά με τον μαύρο σταυρό για να ζουμάρετε, στο πράσινο κουμπί με την παύλα για να αφαιρέσετε το ζουμ ή στα πράσινα βέλη για να αντιπαραβάλλετε χάρτες.


METAR-TAF: